sensor_id;sensor_type;location;lat;lon;timestamp;temperature;humidity
582;DHT22;277;50.074;8.436;2024-01-15T00:00:17;-1.00;99.90
582;DHT22;277;50.074;8.436;2024-01-15T00:02:46;-1.10;99.90
582;DHT22;277;50.074;8.436;2024-01-15T00:05:14;-1.00;99.90
582;DHT22;277;50.074;8.436;2024-01-15T00:07:42;-1.00;99.90
582;DHT22;277;50.074;8.436;2024-01-15T00:10:10;-1.10;99.90
582;DHT22;277;50.074;8.436;2024-01-15T00:12:38;-1.20;99.90
582;DHT22;277;50.074;8.436;2024-01-15T00:15:06;-1.20;99.90
582;DHT22;277;50.074;8.436;2024-01-15T00:17:34;-1.40;99.90
582;DHT22;277;50.074;8.436;2024-01-15T00:20:04;-1.40;99.90
582;DHT22;277;50.074;8.436;2024-01-15T00:22:32;-1.40;99.90
582;DHT22;277;50.074;8.436;2024-01-15T00:25:02;-1.30;99.90
582;DHT22;277;50.074;8.436;2024-01-15T00:27:30;-1.30;99.90
582;DHT22;277;50.074;8.436;2024-01-15T00:29:58;-1.30;99.90
582;DHT22;277;50.074;8.436;2024-01-15T00:32:26;-1.40;99.90
582;DHT22;277;50.074;8.436;2024-01-15T00:34:54;-1.40;99.90
582;DHT22;277;50.074;8.436;2024-01-15T00:37:24;-1.40;99.90
582;DHT22;277;50.074;8.436;2024-01-15T00:39:51;-1.50;99.90
582;DHT22;277;50.074;8.436;2024-01-15T00:42:19;-1.40;99.90
582;DHT22;277;50.074;8.436;2024-01-15T00:44:47;-1.50;99.90
582;DHT22;277;50.074;8.436;2024-01-15T00:47:15;-1.60;99.90
582;DHT22;277;50.074;8.436;2024-01-15T00:49:43;-1.50;99.90
582;DHT22;277;50.074;8.436;2024-01-15T00:52:11;-1.60;99.90
582;DHT22;277;50.074;8.436;2024-01-15T00:54:40;-1.70;99.90
582;DHT22;277;50.074;8.436;2024-01-15T00:57:07;-1.70;99.90
582;DHT22;277;50.074;8.436;2024-01-15T00:59:35;-1.60;99.90
582;DHT22;277;50.074;8.436;2024-01-15T01:02:03;-1.50;99.90
582;DHT22;277;50.074;8.436;2024-01-15T01:04:31;-1.60;99.90
582;DHT22;277;50.074;8.436;2024-01-15T01:06:59;-1.60;99.90
582;DHT22;277;50.074;8.436;2024-01-15T01:09:27;-1.50;99.90
582;DHT22;277;50.074;8.436;2024-01-15T01:11:57;-1.50;99.90
582;DHT22;277;50.074;8.436;2024-01-15T01:14:25;-1.40;99.90
582;DHT22;277;50.074;8.436;2024-01-15T01:16:53;-1.40;99.90
582;DHT22;277;50.074;8.436;2024-01-15T01:19:21;-1.20;99.90
582;DHT22;277;50.074;8.436;2024-01-15T01:21:49;-1.20;99.90
582;DHT22;277;50.074;8.436;2024-01-15T01:24:17;-1.20;99.90
582;DHT22;277;50.074;8.436;2024-01-15T01:26:45;-1.10;99.90
582;DHT22;277;50.074;8.436;2024-01-15T01:29:14;-1.00;99.90
582;DHT22;277;50.074;8.436;2024-01-15T01:31:43;-1.10;99.90
582;DHT22;277;50.074;8.436;2024-01-15T01:34:13;-1.20;99.90
582;DHT22;277;50.074;8.436;2024-01-15T01:36:41;-1.10;99.90
582;DHT22;277;50.074;8.436;2024-01-15T01:39:09;-1.20;99.90
582;DHT22;277;50.074;8.436;2024-01-15T01:41:37;-1.20;99.90
582;DHT22;277;50.074;8.436;2024-01-15T01:44:05;-1.10;99.90
582;DHT22;277;50.074;8.436;2024-01-15T01:46:35;-1.00;99.90
582;DHT22;277;50.074;8.436;2024-01-15T01:49:06;-1.10;99.90
582;DHT22;277;50.074;8.436;2024-01-15T01:51:35;-1.00;99.90
582;DHT22;277;50.074;8.436;2024-01-15T01:54:04;-1.00;99.90
582;DHT22;277;50.074;8.436;2024-01-15T01:56:32;-1.00;99.90
582;DHT22;277;50.074;8.436;2024-01-15T01:59:00;-1.10;99.90
582;DHT22;277;50.074;8.436;2024-01-15T02:01:29;-1.00;99.90
582;DHT22;277;50.074;8.436;2024-01-15T02:03:59;-0.90;99.90
582;DHT22;277;50.074;8.436;2024-01-15T02:06:27;-0.90;99.90
582;DHT22;277;50.074;8.436;2024-01-15T02:08:55;-0.90;99.90
582;DHT22;277;50.074;8.436;2024-01-15T02:11:23;-0.90;99.90
582;DHT22;277;50.074;8.436;2024-01-15T02:13:51;-1.00;99.90
582;DHT22;277;50.074;8.436;2024-01-15T02:16:19;-1.00;99.90
582;DHT22;277;50.074;8.436;2024-01-15T02:18:46;-1.00;99.90
582;DHT22;277;50.074;8.436;2024-01-15T02:21:16;-1.10;99.90
582;DHT22;277;50.074;8.436;2024-01-15T02:23:45;-1.20;99.90
582;DHT22;277;50.074;8.436;2024-01-15T02:26:13;-1.10;99.90
582;DHT22;277;50.074;8.436;2024-01-15T02:28:41;-1.10;99.90
582;DHT22;277;50.074;8.436;2024-01-15T02:31:11;-1.20;99.90
582;DHT22;277;50.074;8.436;2024-01-15T02:33:38;-1.20;99.90
582;DHT22;277;50.074;8.436;2024-01-15T02:36:09;-1.10;99.90
582;DHT22;277;50.074;8.436;2024-01-15T02:38:37;-1.10;99.90
582;DHT22;277;50.074;8.436;2024-01-15T02:41:06;-1.10;99.90
582;DHT22;277;50.074;8.436;2024-01-15T02:43:33;-1.00;99.90
582;DHT22;277;50.074;8.436;2024-01-15T02:46:01;-0.90;99.90
582;DHT22;277;50.074;8.436;2024-01-15T02:48:29;-0.90;99.90
582;DHT22;277;50.074;8.436;2024-01-15T02:50:57;-0.90;99.90
582;DHT22;277;50.074;8.436;2024-01-15T02:53:25;-0.90;99.90
582;DHT22;277;50.074;8.436;2024-01-15T02:55:52;-0.90;99.90
582;DHT22;277;50.074;8.436;2024-01-15T02:58:22;-0.80;99.90
582;DHT22;277;50.074;8.436;2024-01-15T03:00:49;-0.90;99.90
582;DHT22;277;50.074;8.436;2024-01-15T03:03:17;-0.90;99.90
582;DHT22;277;50.074;8.436;2024-01-15T03:05:45;-0.80;99.90
582;DHT22;277;50.074;8.436;2024-01-15T03:08:13;-0.80;99.90
582;DHT22;277;50.074;8.436;2024-01-15T03:10:41;-0.80;99.90
582;DHT22;277;50.074;8.436;2024-01-15T03:13:09;-0.70;99.90
582;DHT22;277;50.074;8.436;2024-01-15T03:15:39;-0.60;99.90
582;DHT22;277;50.074;8.436;2024-01-15T03:18:06;-0.60;99.90
582;DHT22;277;50.074;8.436;2024-01-15T03:20:34;-0.40;99.90
582;DHT22;277;50.074;8.436;2024-01-15T03:23:02;-0.30;99.90
582;DHT22;277;50.074;8.436;2024-01-15T03:25:30;-0.20;99.90
582;DHT22;277;50.074;8.436;2024-01-15T03:27:58;-0.10;99.90
582;DHT22;277;50.074;8.436;2024-01-15T03:30:26;-0.20;99.90
582;DHT22;277;50.074;8.436;2024-01-15T03:32:55;-0.30;99.90
582;DHT22;277;50.074;8.436;2024-01-15T03:35:23;-0.20;99.90
582;DHT22;277;50.074;8.436;2024-01-15T03:37:55;-0.40;99.90
582;DHT22;277;50.074;8.436;2024-01-15T03:40:23;-0.30;99.90
582;DHT22;277;50.074;8.436;2024-01-15T03:42:51;-0.10;99.90
582;DHT22;277;50.074;8.436;2024-01-15T03:45:19;-0.20;99.90
582;DHT22;277;50.074;8.436;2024-01-15T03:47:47;-0.30;99.90
582;DHT22;277;50.074;8.436;2024-01-15T03:50:16;-0.10;99.90
582;DHT22;277;50.074;8.436;2024-01-15T03:52:44;0.20;99.90
582;DHT22;277;50.074;8.436;2024-01-15T03:55:12;0.00;99.90
582;DHT22;277;50.074;8.436;2024-01-15T03:57:39;0.00;99.90
582;DHT22;277;50.074;8.436;2024-01-15T04:00:08;0.00;99.90
582;DHT22;277;50.074;8.436;2024-01-15T04:02:36;0.00;99.90
582;DHT22;277;50.074;8.436;2024-01-15T04:05:04;0.20;99.90
582;DHT22;277;50.074;8.436;2024-01-15T04:07:33;0.40;99.90
582;DHT22;277;50.074;8.436;2024-01-15T04:10:01;0.30;99.90
582;DHT22;277;50.074;8.436;2024-01-15T04:12:29;0.40;99.90
582;DHT22;277;50.074;8.436;2024-01-15T04:14:57;0.20;99.90
582;DHT22;277;50.074;8.436;2024-01-15T04:17:25;0.20;99.90
582;DHT22;277;50.074;8.436;2024-01-15T04:19:52;0.00;99.90
582;DHT22;277;50.074;8.436;2024-01-15T04:22:20;0.10;99.90
582;DHT22;277;50.074;8.436;2024-01-15T04:24:49;-0.10;99.90
582;DHT22;277;50.074;8.436;2024-01-15T04:27:17;-0.10;99.90
582;DHT22;277;50.074;8.436;2024-01-15T04:29:45;0.00;99.90
582;DHT22;277;50.074;8.436;2024-01-15T04:32:13;-0.10;99.90
582;DHT22;277;50.074;8.436;2024-01-15T04:34:41;0.10;99.90
582;DHT22;277;50.074;8.436;2024-01-15T04:37:09;0.10;99.90
582;DHT22;277;50.074;8.436;2024-01-15T04:39:36;0.30;99.90
582;DHT22;277;50.074;8.436;2024-01-15T04:42:06;0.40;99.90
582;DHT22;277;50.074;8.436;2024-01-15T04:44:33;0.30;99.90
582;DHT22;277;50.074;8.436;2024-01-15T04:47:01;0.20;99.90
582;DHT22;277;50.074;8.436;2024-01-15T04:49:29;0.20;99.90
582;DHT22;277;50.074;8.436;2024-01-15T04:51:57;0.30;99.90
582;DHT22;277;50.074;8.436;2024-01-15T04:54:25;0.40;99.90
582;DHT22;277;50.074;8.436;2024-01-15T04:56:52;0.20;99.90
582;DHT22;277;50.074;8.436;2024-01-15T04:59:22;0.10;99.90
582;DHT22;277;50.074;8.436;2024-01-15T05:01:49;0.20;99.90
582;DHT22;277;50.074;8.436;2024-01-15T05:04:17;0.10;99.90
582;DHT22;277;50.074;8.436;2024-01-15T05:06:45;0.00;99.90
582;DHT22;277;50.074;8.436;2024-01-15T05:09:13;0.00;99.90
582;DHT22;277;50.074;8.436;2024-01-15T05:11:41;0.10;99.90
582;DHT22;277;50.074;8.436;2024-01-15T05:14:09;-0.10;99.90
582;DHT22;277;50.074;8.436;2024-01-15T05:16:39;-0.10;99.90
582;DHT22;277;50.074;8.436;2024-01-15T05:19:07;-0.20;99.90
582;DHT22;277;50.074;8.436;2024-01-15T05:21:35;-0.20;99.90
582;DHT22;277;50.074;8.436;2024-01-15T05:24:03;-0.30;99.90
582;DHT22;277;50.074;8.436;2024-01-15T05:26:31;-0.20;99.90
582;DHT22;277;50.074;8.436;2024-01-15T05:28:59;-0.20;99.90
582;DHT22;277;50.074;8.436;2024-01-15T05:31:26;-0.20;99.90
582;DHT22;277;50.074;8.436;2024-01-15T05:33:56;-0.20;99.90
582;DHT22;277;50.074;8.436;2024-01-15T05:36:24;-0.20;99.90
582;DHT22;277;50.074;8.436;2024-01-15T05:38:51;-0.10;99.90
582;DHT22;277;50.074;8.436;2024-01-15T05:41:19;-0.20;99.90
582;DHT22;277;50.074;8.436;2024-01-15T05:43:47;-0.30;99.90
582;DHT22;277;50.074;8.436;2024-01-15T05:46:15;-0.40;99.90
582;DHT22;277;50.074;8.436;2024-01-15T05:48:43;-0.50;99.90
582;DHT22;277;50.074;8.436;2024-01-15T05:51:12;-0.50;99.90
582;DHT22;277;50.074;8.436;2024-01-15T05:53:40;-0.50;99.90
582;DHT22;277;50.074;8.436;2024-01-15T05:56:09;-0.50;99.90
582;DHT22;277;50.074;8.436;2024-01-15T05:58:37;-0.60;99.90
582;DHT22;277;50.074;8.436;2024-01-15T06:01:05;-0.70;99.90
582;DHT22;277;50.074;8.436;2024-01-15T06:03:33;-0.70;99.90
582;DHT22;277;50.074;8.436;2024-01-15T06:06:01;-0.60;99.90
582;DHT22;277;50.074;8.436;2024-01-15T06:08:31;-0.60;99.90
582;DHT22;277;50.074;8.436;2024-01-15T06:10:59;-0.60;99.90
582;DHT22;277;50.074;8.436;2024-01-15T06:13:28;-0.60;99.90
582;DHT22;277;50.074;8.436;2024-01-15T06:15:55;-0.60;99.90
582;DHT22;277;50.074;8.436;2024-01-15T06:18:23;-0.60;99.90
582;DHT22;277;50.074;8.436;2024-01-15T06:20:51;-0.60;99.90
582;DHT22;277;50.074;8.436;2024-01-15T06:23:20;-0.60;99.90
582;DHT22;277;50.074;8.436;2024-01-15T06:25:49;-0.60;99.90
582;DHT22;277;50.074;8.436;2024-01-15T06:28:16;-0.60;99.90
582;DHT22;277;50.074;8.436;2024-01-15T06:30:44;-0.60;99.90
582;DHT22;277;50.074;8.436;2024-01-15T06:33:12;-0.60;99.90
582;DHT22;277;50.074;8.436;2024-01-15T06:35:40;-0.60;99.90
582;DHT22;277;50.074;8.436;2024-01-15T06:38:08;-0.60;99.90
582;DHT22;277;50.074;8.436;2024-01-15T06:40:36;-0.60;99.90
582;DHT22;277;50.074;8.436;2024-01-15T06:43:05;-0.50;99.90
582;DHT22;277;50.074;8.436;2024-01-15T06:45:34;-0.50;99.90
582;DHT22;277;50.074;8.436;2024-01-15T06:48:02;-0.40;99.90
582;DHT22;277;50.074;8.436;2024-01-15T06:50:30;-0.40;99.90
582;DHT22;277;50.074;8.436;2024-01-15T06:52:58;-0.30;99.90
582;DHT22;277;50.074;8.436;2024-01-15T06:55:25;-0.40;99.90
582;DHT22;277;50.074;8.436;2024-01-15T06:57:54;-0.40;99.90
582;DHT22;277;50.074;8.436;2024-01-15T07:00:23;-0.40;99.90
582;DHT22;277;50.074;8.436;2024-01-15T07:02:51;-0.40;99.90
582;DHT22;277;50.074;8.436;2024-01-15T07:05:20;-0.40;99.90
582;DHT22;277;50.074;8.436;2024-01-15T07:07:48;-0.40;99.90
582;DHT22;277;50.074;8.436;2024-01-15T07:10:15;-0.40;99.90
582;DHT22;277;50.074;8.436;2024-01-15T07:12:43;-0.40;99.90
582;DHT22;277;50.074;8.436;2024-01-15T07:15:11;-0.40;99.90
582;DHT22;277;50.074;8.436;2024-01-15T07:17:40;-0.40;99.90
582;DHT22;277;50.074;8.436;2024-01-15T07:20:09;-0.40;99.90
582;DHT22;277;50.074;8.436;2024-01-15T07:22:37;-0.40;99.90
582;DHT22;277;50.074;8.436;2024-01-15T07:25:05;-0.40;99.90
582;DHT22;277;50.074;8.436;2024-01-15T07:27:33;-0.40;99.90
582;DHT22;277;50.074;8.436;2024-01-15T07:30:01;-0.40;99.90
582;DHT22;277;50.074;8.436;2024-01-15T07:32:32;-0.40;99.90
582;DHT22;277;50.074;8.436;2024-01-15T07:35:01;-0.30;99.90
582;DHT22;277;50.074;8.436;2024-01-15T07:37:29;-0.30;99.90
582;DHT22;277;50.074;8.436;2024-01-15T07:39:57;-0.30;99.90
582;DHT22;277;50.074;8.436;2024-01-15T07:42:25;-0.30;99.90
582;DHT22;277;50.074;8.436;2024-01-15T07:44:52;-0.30;99.90
582;DHT22;277;50.074;8.436;2024-01-15T07:47:21;-0.30;99.90
582;DHT22;277;50.074;8.436;2024-01-15T07:49:48;-0.30;99.90
582;DHT22;277;50.074;8.436;2024-01-15T07:52:18;-0.20;99.90
582;DHT22;277;50.074;8.436;2024-01-15T07:54:45;-0.20;99.90
582;DHT22;277;50.074;8.436;2024-01-15T07:57:13;-0.20;99.90
582;DHT22;277;50.074;8.436;2024-01-15T07:59:42;-0.20;99.90
582;DHT22;277;50.074;8.436;2024-01-15T08:02:10;-0.10;99.90
582;DHT22;277;50.074;8.436;2024-01-15T08:04:37;-0.10;99.90
582;DHT22;277;50.074;8.436;2024-01-15T08:07:06;-0.10;99.90
582;DHT22;277;50.074;8.436;2024-01-15T08:09:36;0.00;99.90
582;DHT22;277;50.074;8.436;2024-01-15T08:12:04;0.00;99.90
582;DHT22;277;50.074;8.436;2024-01-15T08:14:33;0.20;99.90
582;DHT22;277;50.074;8.436;2024-01-15T08:17:01;0.10;99.90
582;DHT22;277;50.074;8.436;2024-01-15T08:19:29;0.20;99.90
582;DHT22;277;50.074;8.436;2024-01-15T08:21:58;0.10;99.90
582;DHT22;277;50.074;8.436;2024-01-15T08:24:26;0.20;99.90
582;DHT22;277;50.074;8.436;2024-01-15T08:26:56;0.20;99.90
582;DHT22;277;50.074;8.436;2024-01-15T08:29:24;0.20;99.90
582;DHT22;277;50.074;8.436;2024-01-15T08:31:52;0.20;99.90
582;DHT22;277;50.074;8.436;2024-01-15T08:34:20;0.20;99.90
582;DHT22;277;50.074;8.436;2024-01-15T08:36:48;0.20;99.90
582;DHT22;277;50.074;8.436;2024-01-15T08:39:16;0.20;99.90
582;DHT22;277;50.074;8.436;2024-01-15T08:41:46;0.20;99.90
582;DHT22;277;50.074;8.436;2024-01-15T08:44:15;0.20;99.90
582;DHT22;277;50.074;8.436;2024-01-15T08:46:43;0.20;99.90
582;DHT22;277;50.074;8.436;2024-01-15T08:49:11;0.10;99.90
582;DHT22;277;50.074;8.436;2024-01-15T08:51:39;0.20;99.90
582;DHT22;277;50.074;8.436;2024-01-15T08:54:07;0.20;99.90
582;DHT22;277;50.074;8.436;2024-01-15T08:56:36;0.30;99.90
582;DHT22;277;50.074;8.436;2024-01-15T08:59:04;0.30;99.90
582;DHT22;277;50.074;8.436;2024-01-15T09:01:33;0.30;99.90
582;DHT22;277;50.074;8.436;2024-01-15T09:04:01;0.40;99.90
582;DHT22;277;50.074;8.436;2024-01-15T09:06:30;0.40;99.90
582;DHT22;277;50.074;8.436;2024-01-15T09:08:58;0.40;99.90
582;DHT22;277;50.074;8.436;2024-01-15T09:11:26;0.40;99.90
582;DHT22;277;50.074;8.436;2024-01-15T09:13:54;0.40;99.90
582;DHT22;277;50.074;8.436;2024-01-15T09:16:22;0.50;99.90
582;DHT22;277;50.074;8.436;2024-01-15T09:18:51;0.50;99.90
582;DHT22;277;50.074;8.436;2024-01-15T09:21:19;0.70;99.90
582;DHT22;277;50.074;8.436;2024-01-15T09:23:47;0.70;99.90
582;DHT22;277;50.074;8.436;2024-01-15T09:26:15;0.90;99.90
582;DHT22;277;50.074;8.436;2024-01-15T09:28:43;1.00;99.90
582;DHT22;277;50.074;8.436;2024-01-15T09:31:10;1.10;99.90
582;DHT22;277;50.074;8.436;2024-01-15T09:33:38;1.30;99.90
582;DHT22;277;50.074;8.436;2024-01-15T09:36:08;1.50;99.90
582;DHT22;277;50.074;8.436;2024-01-15T09:38:36;1.50;99.90
582;DHT22;277;50.074;8.436;2024-01-15T09:41:03;1.30;99.90
582;DHT22;277;50.074;8.436;2024-01-15T09:43:32;1.30;99.90
582;DHT22;277;50.074;8.436;2024-01-15T09:46:00;1.30;99.90
582;DHT22;277;50.074;8.436;2024-01-15T09:48:29;1.30;99.90
582;DHT22;277;50.074;8.436;2024-01-15T09:50:57;1.30;99.90
582;DHT22;277;50.074;8.436;2024-01-15T09:53:26;1.40;99.90
582;DHT22;277;50.074;8.436;2024-01-15T09:55:54;1.50;99.90
582;DHT22;277;50.074;8.436;2024-01-15T09:58:22;1.50;99.90
582;DHT22;277;50.074;8.436;2024-01-15T10:00:51;1.50;99.90
582;DHT22;277;50.074;8.436;2024-01-15T10:03:19;1.40;99.90
582;DHT22;277;50.074;8.436;2024-01-15T10:05:48;1.50;99.90
582;DHT22;277;50.074;8.436;2024-01-15T10:08:17;1.50;99.90
582;DHT22;277;50.074;8.436;2024-01-15T10:10:47;1.60;99.90
582;DHT22;277;50.074;8.436;2024-01-15T10:13:15;1.70;99.90
582;DHT22;277;50.074;8.436;2024-01-15T10:15:44;1.70;99.90
582;DHT22;277;50.074;8.436;2024-01-15T10:18:14;1.70;99.90
582;DHT22;277;50.074;8.436;2024-01-15T10:20:42;1.60;99.90
582;DHT22;277;50.074;8.436;2024-01-15T10:23:09;1.50;99.90
582;DHT22;277;50.074;8.436;2024-01-15T10:25:37;1.60;99.90
582;DHT22;277;50.074;8.436;2024-01-15T10:28:06;1.60;99.90
582;DHT22;277;50.074;8.436;2024-01-15T10:30:34;1.70;99.90
582;DHT22;277;50.074;8.436;2024-01-15T10:33:02;1.70;99.90
582;DHT22;277;50.074;8.436;2024-01-15T10:35:33;1.80;99.90
582;DHT22;277;50.074;8.436;2024-01-15T10:38:01;1.90;99.90
582;DHT22;277;50.074;8.436;2024-01-15T10:40:29;2.00;99.90
582;DHT22;277;50.074;8.436;2024-01-15T10:42:57;2.10;99.90
582;DHT22;277;50.074;8.436;2024-01-15T10:45:26;2.00;99.90
582;DHT22;277;50.074;8.436;2024-01-15T10:47:54;1.90;99.90
582;DHT22;277;50.074;8.436;2024-01-15T10:50:25;1.80;99.90
582;DHT22;277;50.074;8.436;2024-01-15T10:52:53;1.60;99.90
582;DHT22;277;50.074;8.436;2024-01-15T10:55:21;1.50;99.90
582;DHT22;277;50.074;8.436;2024-01-15T10:57:50;1.50;99.90
582;DHT22;277;50.074;8.436;2024-01-15T11:00:19;1.50;99.90
582;DHT22;277;50.074;8.436;2024-01-15T11:02:49;1.60;99.90
582;DHT22;277;50.074;8.436;2024-01-15T11:05:18;1.50;99.90
582;DHT22;277;50.074;8.436;2024-01-15T11:07:48;1.60;99.90
582;DHT22;277;50.074;8.436;2024-01-15T11:13:03;1.60;99.90
582;DHT22;277;50.074;8.436;2024-01-15T11:15:31;1.60;99.90
582;DHT22;277;50.074;8.436;2024-01-15T11:18:01;1.70;99.90
582;DHT22;277;50.074;8.436;2024-01-15T11:20:32;1.70;99.90
582;DHT22;277;50.074;8.436;2024-01-15T11:23:00;1.80;99.90
582;DHT22;277;50.074;8.436;2024-01-15T11:25:34;1.90;99.90
582;DHT22;277;50.074;8.436;2024-01-15T11:28:02;1.90;99.90
582;DHT22;277;50.074;8.436;2024-01-15T11:30:30;2.00;99.90
582;DHT22;277;50.074;8.436;2024-01-15T11:32:58;2.00;99.90
582;DHT22;277;50.074;8.436;2024-01-15T11:35:28;1.90;99.90
582;DHT22;277;50.074;8.436;2024-01-15T11:38:26;1.80;99.90
582;DHT22;277;50.074;8.436;2024-01-15T11:40:54;1.90;99.90
582;DHT22;277;50.074;8.436;2024-01-15T11:43:22;1.90;99.90
582;DHT22;277;50.074;8.436;2024-01-15T11:45:51;1.90;99.90
582;DHT22;277;50.074;8.436;2024-01-15T11:48:19;2.00;99.90
582;DHT22;277;50.074;8.436;2024-01-15T11:50:51;2.10;99.90
582;DHT22;277;50.074;8.436;2024-01-15T11:53:21;2.00;99.90
582;DHT22;277;50.074;8.436;2024-01-15T11:55:53;2.10;99.90
582;DHT22;277;50.074;8.436;2024-01-15T11:58:25;2.20;99.90
582;DHT22;277;50.074;8.436;2024-01-15T12:00:53;2.30;99.90
582;DHT22;277;50.074;8.436;2024-01-15T12:03:21;2.30;99.90
582;DHT22;277;50.074;8.436;2024-01-15T12:05:53;2.30;99.90
582;DHT22;277;50.074;8.436;2024-01-15T12:08:21;2.30;99.90
582;DHT22;277;50.074;8.436;2024-01-15T12:10:50;2.30;99.90
582;DHT22;277;50.074;8.436;2024-01-15T12:13:18;2.30;99.90
582;DHT22;277;50.074;8.436;2024-01-15T12:15:46;2.30;99.90
582;DHT22;277;50.074;8.436;2024-01-15T12:18:15;2.30;99.90
582;DHT22;277;50.074;8.436;2024-01-15T12:20:44;2.30;99.90
582;DHT22;277;50.074;8.436;2024-01-15T12:23:16;2.30;99.90
582;DHT22;277;50.074;8.436;2024-01-15T12:25:45;2.30;99.90
582;DHT22;277;50.074;8.436;2024-01-15T12:28:13;2.30;99.90
582;DHT22;277;50.074;8.436;2024-01-15T12:30:42;2.30;99.90
582;DHT22;277;50.074;8.436;2024-01-15T12:33:11;2.40;99.90
582;DHT22;277;50.074;8.436;2024-01-15T12:35:39;2.30;99.90
582;DHT22;277;50.074;8.436;2024-01-15T12:38:07;2.30;99.90
582;DHT22;277;50.074;8.436;2024-01-15T12:40:36;2.30;99.90
582;DHT22;277;50.074;8.436;2024-01-15T12:43:05;2.30;99.90
582;DHT22;277;50.074;8.436;2024-01-15T12:45:33;2.30;99.90
582;DHT22;277;50.074;8.436;2024-01-15T12:48:02;2.30;99.90
582;DHT22;277;50.074;8.436;2024-01-15T12:50:30;2.30;99.90
582;DHT22;277;50.074;8.436;2024-01-15T12:52:58;2.30;99.90
582;DHT22;277;50.074;8.436;2024-01-15T12:55:26;2.30;99.90
582;DHT22;277;50.074;8.436;2024-01-15T12:57:55;2.30;99.90
582;DHT22;277;50.074;8.436;2024-01-15T13:00:24;2.30;99.90
582;DHT22;277;50.074;8.436;2024-01-15T13:02:53;2.40;99.90
582;DHT22;277;50.074;8.436;2024-01-15T13:05:21;2.40;99.90
582;DHT22;277;50.074;8.436;2024-01-15T13:07:50;2.40;99.90
582;DHT22;277;50.074;8.436;2024-01-15T13:10:18;2.40;99.90
582;DHT22;277;50.074;8.436;2024-01-15T13:12:51;2.40;99.90
582;DHT22;277;50.074;8.436;2024-01-15T13:15:20;2.40;99.90
582;DHT22;277;50.074;8.436;2024-01-15T13:17:48;2.30;99.90
582;DHT22;277;50.074;8.436;2024-01-15T13:20:15;2.30;99.90
582;DHT22;277;50.074;8.436;2024-01-15T13:22:44;2.40;99.90
582;DHT22;277;50.074;8.436;2024-01-15T13:25:12;2.40;99.90
582;DHT22;277;50.074;8.436;2024-01-15T13:27:40;2.40;99.90
582;DHT22;277;50.074;8.436;2024-01-15T13:30:09;2.40;99.90
582;DHT22;277;50.074;8.436;2024-01-15T13:32:41;2.40;99.90
582;DHT22;277;50.074;8.436;2024-01-15T13:35:09;2.50;99.90
582;DHT22;277;50.074;8.436;2024-01-15T13:37:40;2.40;99.90
582;DHT22;277;50.074;8.436;2024-01-15T13:40:09;2.40;99.90
582;DHT22;277;50.074;8.436;2024-01-15T13:42:43;2.50;99.90
582;DHT22;277;50.074;8.436;2024-01-15T13:45:11;2.50;99.90
582;DHT22;277;50.074;8.436;2024-01-15T13:47:42;2.40;99.90
582;DHT22;277;50.074;8.436;2024-01-15T13:50:10;2.30;99.90
582;DHT22;277;50.074;8.436;2024-01-15T13:52:38;2.30;99.90
582;DHT22;277;50.074;8.436;2024-01-15T13:55:06;2.30;99.90
582;DHT22;277;50.074;8.436;2024-01-15T13:57:35;2.30;99.90
582;DHT22;277;50.074;8.436;2024-01-15T14:00:04;2.30;99.90
582;DHT22;277;50.074;8.436;2024-01-15T14:02:36;2.40;99.90
582;DHT22;277;50.074;8.436;2024-01-15T14:05:05;2.40;99.90
582;DHT22;277;50.074;8.436;2024-01-15T14:07:34;2.40;99.90
582;DHT22;277;50.074;8.436;2024-01-15T14:10:02;2.40;99.90
582;DHT22;277;50.074;8.436;2024-01-15T14:12:30;2.40;99.90
582;DHT22;277;50.074;8.436;2024-01-15T14:14:58;2.30;99.90
582;DHT22;277;50.074;8.436;2024-01-15T14:17:27;2.30;99.90
582;DHT22;277;50.074;8.436;2024-01-15T14:19:55;2.30;99.90
582;DHT22;277;50.074;8.436;2024-01-15T14:22:24;2.30;99.90
582;DHT22;277;50.074;8.436;2024-01-15T14:24:52;2.40;99.90
582;DHT22;277;50.074;8.436;2024-01-15T14:27:20;2.40;99.90
582;DHT22;277;50.074;8.436;2024-01-15T14:29:49;2.40;99.90
582;DHT22;277;50.074;8.436;2024-01-15T14:32:16;2.40;99.90
582;DHT22;277;50.074;8.436;2024-01-15T14:34:44;2.40;99.90
582;DHT22;277;50.074;8.436;2024-01-15T14:37:12;2.50;99.90
582;DHT22;277;50.074;8.436;2024-01-15T14:39:41;2.50;99.90
582;DHT22;277;50.074;8.436;2024-01-15T14:42:10;2.40;99.90
582;DHT22;277;50.074;8.436;2024-01-15T14:44:39;2.40;99.90
582;DHT22;277;50.074;8.436;2024-01-15T14:47:07;2.40;99.90
582;DHT22;277;50.074;8.436;2024-01-15T14:49:35;2.40;99.90
582;DHT22;277;50.074;8.436;2024-01-15T14:52:03;2.40;99.90
582;DHT22;277;50.074;8.436;2024-01-15T14:54:32;2.40;99.90
582;DHT22;277;50.074;8.436;2024-01-15T14:57:01;2.40;99.90
582;DHT22;277;50.074;8.436;2024-01-15T14:59:29;2.40;99.90
582;DHT22;277;50.074;8.436;2024-01-15T15:01:57;2.30;99.90
582;DHT22;277;50.074;8.436;2024-01-15T15:04:24;2.30;99.90
582;DHT22;277;50.074;8.436;2024-01-15T15:06:52;2.30;99.90
582;DHT22;277;50.074;8.436;2024-01-15T15:09:20;2.30;99.90
582;DHT22;277;50.074;8.436;2024-01-15T15:11:48;2.30;99.90
582;DHT22;277;50.074;8.436;2024-01-15T15:14:17;2.30;99.90
582;DHT22;277;50.074;8.436;2024-01-15T15:16:45;2.40;99.90
582;DHT22;277;50.074;8.436;2024-01-15T15:19:14;2.40;99.90
582;DHT22;277;50.074;8.436;2024-01-15T15:21:42;2.40;99.90
582;DHT22;277;50.074;8.436;2024-01-15T15:24:09;2.40;99.90
582;DHT22;277;50.074;8.436;2024-01-15T15:26:38;2.40;99.90
582;DHT22;277;50.074;8.436;2024-01-15T15:29:06;2.30;99.90
582;DHT22;277;50.074;8.436;2024-01-15T15:31:35;2.30;99.90
582;DHT22;277;50.074;8.436;2024-01-15T15:34:03;2.30;99.90
582;DHT22;277;50.074;8.436;2024-01-15T15:36:31;2.30;99.90
582;DHT22;277;50.074;8.436;2024-01-15T15:38:58;2.20;99.90
582;DHT22;277;50.074;8.436;2024-01-15T15:41:26;2.30;99.90
582;DHT22;277;50.074;8.436;2024-01-15T15:43:54;2.20;99.90
582;DHT22;277;50.074;8.436;2024-01-15T15:46:22;2.20;99.90
582;DHT22;277;50.074;8.436;2024-01-15T15:48:51;2.20;99.90
582;DHT22;277;50.074;8.436;2024-01-15T15:51:19;2.30;99.90
582;DHT22;277;50.074;8.436;2024-01-15T15:53:47;2.30;99.90
582;DHT22;277;50.074;8.436;2024-01-15T15:56:15;2.30;99.90
582;DHT22;277;50.074;8.436;2024-01-15T15:58:44;2.30;99.90
582;DHT22;277;50.074;8.436;2024-01-15T16:01:12;2.30;99.90
582;DHT22;277;50.074;8.436;2024-01-15T16:03:40;2.30;99.90
582;DHT22;277;50.074;8.436;2024-01-15T16:06:09;2.30;99.90
582;DHT22;277;50.074;8.436;2024-01-15T16:08:37;2.30;99.90
582;DHT22;277;50.074;8.436;2024-01-15T16:11:04;2.30;99.90
582;DHT22;277;50.074;8.436;2024-01-15T16:13:33;2.30;99.90
582;DHT22;277;50.074;8.436;2024-01-15T16:16:01;2.30;99.90
582;DHT22;277;50.074;8.436;2024-01-15T16:18:49;2.30;99.90
582;DHT22;277;50.074;8.436;2024-01-15T16:21:38;2.20;99.90
582;DHT22;277;50.074;8.436;2024-01-15T16:24:26;2.30;99.90
582;DHT22;277;50.074;8.436;2024-01-15T16:27:11;2.20;99.90
582;DHT22;277;50.074;8.436;2024-01-15T16:29:44;2.20;99.90
582;DHT22;277;50.074;8.436;2024-01-15T16:32:12;2.20;99.90
582;DHT22;277;50.074;8.436;2024-01-15T16:34:40;2.20;99.90
582;DHT22;277;50.074;8.436;2024-01-15T16:37:09;2.20;99.90
582;DHT22;277;50.074;8.436;2024-01-15T16:39:37;2.20;99.90
582;DHT22;277;50.074;8.436;2024-01-15T16:42:05;2.20;99.90
582;DHT22;277;50.074;8.436;2024-01-15T16:44:35;2.20;99.90
582;DHT22;277;50.074;8.436;2024-01-15T16:47:03;2.20;99.90
582;DHT22;277;50.074;8.436;2024-01-15T16:49:34;2.20;99.90
582;DHT22;277;50.074;8.436;2024-01-15T16:52:02;2.20;99.90
582;DHT22;277;50.074;8.436;2024-01-15T16:54:34;2.20;99.90